Flight Track Log - Related Links

Times and Time Zones

All times are in EDT time to prevent confusion due to time zone crossing. See the EJA922 flight status page for this flight to view local times or setup timezone preferences in your user account.

Time Position Orientation Groundspeed Altitude Reporting Facility
EDT Latitude Longitude Course Direction KTS MPH feet Rate Location/Type
Fri 03:49:52 PM 37.4500 -121.9333 31° Northeast 230 265 4,900  Level Northern Cal TRACON
Fri 03:50:52 PM 37.4000 -121.8667 133° Southeast 222 255 5,800 1,401 Climbing Northern Cal TRACON
Fri 03:52:09 PM 37.3575 -121.8169 137° Southeast 213 245 8,100 1,942 Climbing Oakland Center
Fri 03:53:11 PM 37.3281 -121.8728 236° Southwest 242 278 10,300 2,244 Climbing Oakland Center
Fri 03:54:12 PM 37.3856 -121.9453 315° West 263 303 12,700 1,951 Climbing Oakland Center
Fri 03:55:00 PM 38.1517 -121.7362 31° Northeast  Level FlightAware Approximate
Fri 03:55:14 PM 37.4672 -121.9525 356° North 294 338 14,300  Level Oakland Center
Fri 03:56:16 PM 37.5611 -121.9425 North 341 392 15,600 1,113 Climbing Oakland Center
Fri 03:57:18 PM 37.6600 -121.8972 20° North 379 436 16,600 1,065 Climbing Oakland Center
Fri 03:58:20 PM 37.7656 -121.8508 19° North 400 460 17,800 1,073 Climbing Oakland Center
Fri 03:59:21 PM 37.8753 -121.8028 19° North 417 480 18,800 1,171 Climbing Oakland Center
Fri 04:00:23 PM 38.0100 -121.7419 20° North 429 494 20,200 1,258 Climbing Oakland Center
Fri 04:01:25 PM 38.1253 -121.6922 19° North 439 505 21,400 1,161 Climbing Oakland Center
Fri 04:02:27 PM 38.2411 -121.6403 19° North 444 511 22,600 1,171 Climbing Oakland Center
Fri 04:03:28 PM 38.3611 -121.5872 19° North 456 525 23,800 1,220 Climbing Oakland Center
Fri 04:04:30 PM 38.4697 -121.5081 30° Northeast 469 540 25,100 1,161 Climbing Oakland Center
Fri 04:05:32 PM 38.5461 -121.3731 54° Northeast 471 542 26,200 1,113 Climbing Oakland Center
Fri 04:06:34 PM 38.6222 -121.2411 54° Northeast 465 535 27,400 1,171 Climbing Oakland Center
Fri 04:07:35 PM 38.7086 -121.0950 53° Northeast 471 542 28,600 1,073 Climbing Oakland Center
Fri 04:08:37 PM 38.7872 -120.9567 54° Northeast 479 551 29,600 968 Climbing Oakland Center
Fri 04:09:39 PM 38.8689 -120.8164 53° Northeast 487 560 30,600 1,016 Climbing Oakland Center
Fri 04:10:41 PM 38.9678 -120.6436 54° Northeast 499 574 31,700 1,016 Climbing Oakland Center
Fri 04:11:43 PM 39.0517 -120.4975 53° Northeast 506 582 32,700 976 Climbing Oakland Center
Fri 04:12:44 PM 39.1367 -120.3506 53° Northeast 511 588 33,700 927 Climbing Oakland Center
Fri 04:13:46 PM 39.2208 -120.2000 54° Northeast 516 594 34,600 629 Climbing Oakland Center
Fri 04:14:48 PM 39.3139 -120.0456 52° Northeast 532 612 35,000 435 Climbing Oakland Center
Fri 04:15:50 PM 39.4042 -119.8858 54° Northeast 545 627 35,500 537 Climbing Oakland Center
Fri 04:16:51 PM 39.4953 -119.7242 54° Northeast 554 638 36,100 537 Climbing Oakland Center
Fri 04:17:53 PM 39.5856 -119.5614 54° Northeast 555 639 36,600 435 Climbing Oakland Center
Fri 04:18:55 PM 39.6772 -119.3953 54° Northeast 560 644 37,000 195 Climbing Oakland Center
Fri 04:19:56 PM 39.7900 -119.1908 54° Northeast 572 658 37,000  Level Oakland Center
Fri 04:20:58 PM 39.8856 -119.0172 54° Northeast 581 669 37,000 195 Level Oakland Center
Fri 04:21:59 PM 39.9794 -118.8447 55° Northeast 579 666 37,400 488 Climbing Oakland Center
Fri 04:23:01 PM 40.0719 -118.6739 55° Northeast 574 661 38,000 629 Climbing Oakland Center
Fri 04:24:03 PM 40.1497 -118.4933 61° Northeast 570 656 38,700 667 Climbing Oakland Center
Fri 04:24:40 PM 40.1819 -118.3703 71° East 567 652 39,100 606 Climbing Salt Lake Center
Fri 04:25:42 PM 40.2325 -118.1833 70° East 569 655 39,700 629 Climbing Salt Lake Center
Fri 04:26:44 PM 40.2914 -117.9675 70° East 565 650 40,400 629 Climbing Salt Lake Center
Fri 04:27:46 PM 40.3419 -117.7844 70° East 559 643 41,000 290 Climbing Salt Lake Center
Fri 04:28:48 PM 40.3986 -117.5697 71° East 557 641 41,000  Level Salt Lake Center
Fri 04:29:50 PM 40.4475 -117.3850 71° East 558 642 41,000  Level Salt Lake Center
Fri 04:30:52 PM 40.4978 -117.1986 70° East 560 644 41,000  Level Salt Lake Center
Fri 04:31:54 PM 40.5558 -116.9781 71° East 564 649 41,000  Level Salt Lake Center
Fri 04:32:56 PM 40.6061 -116.7875 71° East 565 650 41,000  Level Salt Lake Center
Fri 04:33:58 PM 40.6650 -116.5694 70° East 561 646 41,000  Level Salt Lake Center
Fri 04:35:00 PM 40.7150 -116.3819 71° East 564 649 41,000  Level Salt Lake Center
Fri 04:36:02 PM 40.7650 -116.1969 70° East 561 646 41,000  Level Salt Lake Center
Fri 04:37:04 PM 40.8225 -115.9786 71° East 564 649 41,000  Level Salt Lake Center
Fri 04:38:06 PM 40.8708 -115.7903 71° East 564 649 41,000  Level Salt Lake Center
Fri 04:39:08 PM 40.9269 -115.5717 71° East 564 649 41,000  Level Salt Lake Center
Fri 04:40:10 PM 40.9769 -115.3836 71° East 565 650 41,000  Level Salt Lake Center
Fri 04:41:12 PM 41.0328 -115.1622 71° East 568 654 41,000  Level Salt Lake Center
Fri 04:42:14 PM 41.0842 -114.9750 70° East 567 652 41,000  Level Salt Lake Center
Fri 04:43:16 PM 41.1331 -114.7683 73° East 567 652 41,000  Level Salt Lake Center
Fri 04:44:18 PM 41.1831 -114.5689 72° East 570 656 41,000  Level Salt Lake Center
Fri 04:45:19 PM 41.2325 -114.3703 72° East 569 655 41,000  Level Salt Lake Center
Fri 04:46:21 PM 41.2908 -114.1300 72° East 570 656 41,000  Level Salt Lake Center
Fri 04:47:23 PM 41.3397 -113.9325 72° East 564 649 41,000  Level Salt Lake Center
Fri 04:48:25 PM 41.3736 -113.7272 78° East 568 654 41,000  Level Salt Lake Center
Fri 04:49:27 PM 41.3839 -113.5206 86° East 564 649 41,000  Level Salt Lake Center
Fri 04:50:29 PM 41.3978 -113.3133 85° East 563 648 41,000  Level Salt Lake Center
Fri 04:51:31 PM 41.4100 -113.1036 85° East 568 654 41,000  Level Salt Lake Center
Fri 04:52:33 PM 41.4225 -112.8936 85° East 569 655 41,000  Level Salt Lake Center
Fri 04:53:35 PM 41.4372 -112.6408 85° East 569 655 41,000  Level Salt Lake Center
Fri 04:54:37 PM 41.4497 -112.4308 85° East 568 654 41,000  Level Salt Lake Center
Fri 04:55:39 PM 41.4614 -112.2178 86° East 572 658 41,000  Level Salt Lake Center
Fri 04:56:41 PM 41.4725 -112.0050 86° East 572 658 41,000  Level Salt Lake Center
Fri 04:57:43 PM 41.4842 -111.7908 86° East 574 661 41,000  Level Salt Lake Center
Fri 04:58:45 PM 41.4947 -111.5769 86° East 574 661 41,000  Level Salt Lake Center
Fri 04:59:47 PM 41.5044 -111.3633 86° East 575 662 41,000  Level Salt Lake Center
Fri 05:00:49 PM 41.5131 -111.1517 87° East 571 657 41,000  Level Salt Lake Center
Fri 05:01:51 PM 41.5239 -110.9161 86° East 570 656 41,000  Level Salt Lake Center
Fri 05:02:53 PM 41.5331 -110.6814 87° East 568 654 41,000 48 Level Salt Lake Center
Fri 05:03:55 PM 41.5414 -110.4817 87° East 565 650 41,100 339 Climbing Salt Lake Center
Fri 05:04:57 PM 41.5506 -110.2475 87° East 565 650 41,700 532 Climbing Salt Lake Center
Fri 05:05:59 PM 41.5578 -110.0536 87° East 551 634 42,200 581 Climbing Salt Lake Center
Fri 05:07:01 PM 41.5653 -109.8269 87° East 548 631 42,900 484 Climbing Salt Lake Center
Fri 05:08:03 PM 41.5717 -109.6342 87° East 543 625 43,200 194 Climbing Salt Lake Center
Fri 05:09:05 PM 41.5786 -109.4422 87° East 541 623 43,300 194 Climbing Salt Lake Center
Fri 05:10:07 PM 41.5861 -109.2142 87° East 543 625 43,600 242 Climbing Salt Lake Center
Fri 05:11:09 PM 41.5928 -109.0144 87° East 548 631 43,800 145 Climbing Salt Lake Center
Fri 05:12:11 PM 41.6061 -108.8203 85° East 543 625 43,900 97 Climbing Salt Lake Center
Fri 05:13:13 PM 41.6236 -108.5956 84° East 545 627 44,000 48 Climbing Salt Lake Center
Fri 05:14:15 PM 41.6361 -108.4036 85° East 544 626 44,000  Level Salt Lake Center
Fri 05:15:17 PM 41.6531 -108.1792 84° East 544 626 44,000  Level Salt Lake Center
Fri 05:16:19 PM 41.6681 -107.9878 84° East 542 624 44,000  Level Salt Lake Center
Fri 05:17:21 PM 41.6825 -107.7631 85° East 545 627 44,000 48 Level Salt Lake Center
Fri 05:18:23 PM 41.6950 -107.5708 85° East 544 626 44,100 97 Climbing Salt Lake Center
Fri 05:19:25 PM 41.7097 -107.3486 85° East 538 619 44,200 145 Climbing Salt Lake Center
Fri 05:20:27 PM 41.7214 -107.1617 85° East 531 611 44,400 194 Climbing Salt Lake Center
Fri 05:21:29 PM 41.7344 -106.9442 85° East 527 606 44,600 242 Climbing Salt Lake Center
Fri 05:22:31 PM 41.7461 -106.7597 85° East 523 602 44,900 194 Climbing Salt Lake Center
Fri 05:23:33 PM 41.7583 -106.5606 85° East 519 597 45,000 48 Climbing Salt Lake Center
Fri 05:24:35 PM 41.7694 -106.3464 86° East 518 596 45,000  Level Salt Lake Center
Fri 05:25:37 PM 41.7794 -106.1597 86° East 526 605 45,000  Level Salt Lake Center
Fri 05:27:07 PM 41.7928 -105.8811 86° East 524 603 45,000  Level Denver Center
Fri 05:28:09 PM 41.8050 -105.6653 86° East 523 602 45,000  Level Denver Center
Fri 05:29:11 PM 41.8147 -105.4775 86° East 526 605 45,000  Level Denver Center
Fri 05:30:14 PM 41.8242 -105.2608 87° East 524 603 45,000  Level Denver Center
Fri 05:31:16 PM 41.8333 -105.0717 86° East 530 610 45,000  Level Denver Center
Fri 05:32:18 PM 41.8428 -104.8533 87° East 529 609 45,000  Level Denver Center
Fri 05:33:20 PM 41.8497 -104.6667 87° East 526 605 45,000  Level Denver Center
Fri 05:34:22 PM 41.8586 -104.4472 87° East 529 609 45,000  Level Denver Center
Fri 05:35:24 PM 41.8667 -104.2578 87° East 534 615 45,000  Level Denver Center
Fri 05:36:26 PM 41.8731 -104.0389 88° East 531 611 45,000  Level Denver Center
Fri 05:37:28 PM 41.8808 -103.8489 87° East 533 613 45,000  Level Denver Center
Fri 05:38:30 PM 41.8883 -103.6289 87° East 533 613 45,000  Level Denver Center
Fri 05:39:32 PM 41.8989 -103.4408 86° East 531 611 45,000  Level Denver Center
Fri 05:40:34 PM 41.9286 -103.2242 79° East 530 610 45,000  Level Denver Center
Fri 05:41:36 PM 41.9558 -103.0378 79° East 532 612 45,000  Level Denver Center
Fri 05:42:38 PM 41.9858 -102.8181 80° East 537 618 45,000  Level Denver Center
Fri 05:43:41 PM 42.0106 -102.6306 80° East 535 616 45,000  Level Denver Center
Fri 05:44:43 PM 42.0392 -102.4119 80° East 534 615 45,000  Level Denver Center
Fri 05:45:45 PM 42.0669 -102.2069 80° East 536 617 45,000  Level Denver Center
Fri 05:46:47 PM 42.0922 -102.0175 80° East 536 617 45,000  Level Denver Center
Fri 05:47:49 PM 42.1217 -101.7972 80° East 535 616 45,000  Level Denver Center
Fri 05:48:51 PM 42.1447 -101.6086 81° East 531 611 45,000  Level Denver Center
Fri 05:49:53 PM 42.1722 -101.3878 80° East 535 616 45,000  Level Denver Center
Fri 05:50:55 PM 42.1953 -101.2017 80° East 529 609 45,000  Level Denver Center
Fri 05:51:57 PM 42.2203 -100.9828 81° East 528 608 45,000  Level Denver Center
Fri 05:52:59 PM 42.2428 -100.7964 81° East 526 605 45,000  Level Denver Center
Fri 05:54:01 PM 42.2647 -100.6092 81° East 526 605 45,000  Level Denver Center
Fri 05:55:03 PM 42.2894 -100.3892 81° East 529 609 45,000  Level Denver Center
Fri 05:55:43 PM 42.3014 -100.2856 81° East 528 608 45,000  Level Minneapolis Center
Fri 05:56:45 PM 42.3278 -100.0489 81° East 530 610 45,000  Level Minneapolis Center
Fri 05:57:48 PM 42.3497 -99.8503 81° East 532 612 45,000  Level Minneapolis Center
Fri 05:58:50 PM 42.3706 -99.6525 82° East 531 611 45,000  Level Minneapolis Center
Fri 05:59:52 PM 42.3922 -99.4533 82° East 534 615 45,000  Level Minneapolis Center
Fri 06:00:54 PM 42.4139 -99.2539 82° East 535 616 45,000  Level Minneapolis Center
Fri 06:01:56 PM 42.4342 -99.0539 82° East 535 616 45,000  Level Minneapolis Center
Fri 06:02:58 PM 42.4539 -98.8544 82° East 534 615 45,000  Level Minneapolis Center
Fri 06:04:00 PM 42.4756 -98.6125 83° East 536 617 45,000  Level Minneapolis Center
Fri 06:05:02 PM 42.4844 -98.4097 87° East 538 619 45,000  Level Minneapolis Center
Fri 06:06:04 PM 42.4950 -98.2069 86° East 539 620 45,000  Level Minneapolis Center
Fri 06:07:18 PM 42.5031 -98.0044 87° East 537 618 45,000  Level Minneapolis Center
Fri 06:08:21 PM 42.5153 -97.7375 86° East 537 618 45,000  Level Minneapolis Center
Fri 06:09:23 PM 42.5244 -97.5356 86° East 540 621 45,000  Level Minneapolis Center
Fri 06:10:25 PM 42.5328 -97.3322 87° East 540 621 45,000  Level Minneapolis Center
Fri 06:11:27 PM 42.5397 -97.1292 87° East 540 621 45,000  Level Minneapolis Center
Fri 06:12:30 PM 42.5467 -96.9258 87° East 540 621 45,000  Level Minneapolis Center
Fri 06:13:32 PM 42.5542 -96.7192 87° East 545 627 45,000  Level Minneapolis Center
Fri 06:14:34 PM 42.5619 -96.4733 87° East 543 625 45,000  Level Minneapolis Center
Fri 06:15:36 PM 42.5692 -96.2661 87° East 546 628 45,000  Level Minneapolis Center
Fri 06:16:38 PM 42.5753 -96.0639 88° East 538 619 45,000  Level Minneapolis Center
Fri 06:17:40 PM 42.5803 -95.8592 88° East 540 621 45,000  Level Minneapolis Center
Fri 06:18:42 PM 42.5853 -95.6542 88° East 541 623 45,000  Level Minneapolis Center
Fri 06:19:56 PM 42.5903 -95.4456 88° East 550 633 45,000  Level Minneapolis Center
Fri 06:20:59 PM 42.5958 -95.2008 88° East 543 625 45,000  Level Minneapolis Center
Fri 06:22:01 PM 42.6003 -94.9528 89° East 546 628 45,000  Level Minneapolis Center
Fri 06:23:03 PM 42.6039 -94.7475 89° East 544 626 45,000  Level Minneapolis Center
Fri 06:24:05 PM 42.6069 -94.5611 89° East 546 628 45,000  Level Minneapolis Center
Fri 06:25:07 PM 42.6089 -94.3094 89° East 556 640 45,000  Level Minneapolis Center
Fri 06:26:09 PM 42.6017 -94.1033 93° East 554 638 45,000  Level Minneapolis Center
Fri 06:27:11 PM 42.5914 -93.8978 94° East 553 636 45,000  Level Minneapolis Center
Fri 06:28:13 PM 42.5819 -93.6914 93° East 553 636 45,000  Level Minneapolis Center
Fri 06:29:15 PM 42.5725 -93.4844 93° East 553 636 45,000  Level Minneapolis Center
Fri 06:30:17 PM 42.5603 -93.2372 94° East 555 639 45,000  Level Minneapolis Center
Fri 06:31:22 PM 42.5492 -93.0308 94° East 552 635 45,000  Level Chicago Center
Fri 06:32:24 PM 42.5375 -92.8269 94° East 550 633 45,000  Level Chicago Center
Fri 06:33:26 PM 42.5239 -92.5850 94° East 544 626 45,000  Level Chicago Center
Fri 06:34:29 PM 42.5119 -92.3833 95° East 544 626 45,000  Level Chicago Center
Fri 06:35:31 PM 42.5000 -92.1828 95° East 544 626 45,000  Level Chicago Center
Fri 06:36:33 PM 42.4881 -91.9825 95° East 543 625 45,000  Level Chicago Center
Fri 06:37:35 PM 42.4725 -91.7436 95° East 543 625 45,000  Level Chicago Center
Fri 06:38:37 PM 42.4600 -91.5447 95° East 543 625 45,000  Level Chicago Center
Fri 06:39:39 PM 42.4461 -91.3450 95° East 544 626 45,000  Level Chicago Center
Fri 06:40:41 PM 42.4322 -91.1464 95° East 542 624 45,000  Level Chicago Center
Fri 06:41:43 PM 42.4144 -90.9050 96° East 543 625 45,000  Level Chicago Center
Fri 06:42:45 PM 42.3989 -90.7025 96° East 548 631 45,000  Level Chicago Center
Fri 06:43:47 PM 42.3878 -90.5003 94° East 547 629 45,000  Level Chicago Center
Fri 06:44:49 PM 42.3775 -90.2969 94° East 549 632 45,000  Level Chicago Center
Fri 06:45:52 PM 42.3658 -90.0931 94° East 550 633 45,000  Level Chicago Center
Fri 06:46:54 PM 42.3525 -89.8508 94° East 550 633 45,000  Level Chicago Center
Fri 06:47:56 PM 42.3394 -89.6450 95° East 550 633 45,000  Level Chicago Center
Fri 06:48:58 PM 42.3261 -89.4392 95° East 551 634 45,000  Level Chicago Center
Fri 06:50:00 PM 42.3139 -89.2364 95° East 546 628 45,000  Level Chicago Center
Fri 06:51:03 PM 42.2978 -88.9986 95° East 546 628 45,000  Level Chicago Center
Fri 06:52:04 PM 42.2847 -88.8133 95° East 548 631 45,000  Level Chicago Center
Fri 06:53:06 PM 42.2711 -88.6100 95° East 547 629 45,000  Level Chicago Center
Fri 06:54:08 PM 42.2522 -88.3689 96° East 540 621 45,000  Level Chicago Center
Fri 06:55:10 PM 42.2375 -88.1683 96° East 538 619 45,000  Level Chicago Center
Fri 06:56:13 PM 42.2214 -87.9650 96° East 542 624 45,000  Level Chicago Center
Fri 06:57:15 PM 42.2111 -87.7631 94° East 541 623 45,000  Level Chicago Center
Fri 06:59:19 PM 42.1892 -87.3625 94° East 538 619 45,000  Level Chicago Center
Fri 07:00:21 PM 42.1750 -87.1214 94° East 540 621 45,000  Level Chicago Center
Fri 07:01:23 PM 42.1617 -86.9192 95° East 542 624 45,000  Level Chicago Center
Fri 07:02:25 PM 42.1511 -86.7206 94° East 538 619 45,000  Level Chicago Center
Fri 07:03:27 PM 42.1383 -86.5103 95° East 541 623 45,000  Level Chicago Center
Fri 07:04:29 PM 42.1244 -86.3094 95° East 538 619 45,000  Level Chicago Center
Fri 07:05:31 PM 42.1111 -86.1106 95° East 536 617 45,000  Level Chicago Center
Fri 07:06:34 PM 42.0956 -85.8864 95° East 537 618 45,000  Level Chicago Center
Fri 07:07:36 PM 42.0819 -85.6872 95° East 537 618 45,000  Level Chicago Center
Fri 07:08:38 PM 42.0669 -85.4869 96° East 541 623 45,000  Level Chicago Center
Fri 07:09:40 PM 42.0531 -85.2875 95° East 541 623 45,000  Level Chicago Center
Fri 07:10:42 PM 42.0375 -85.0447 95° East 544 626 45,000  Level Chicago Center
Fri 07:11:44 PM 42.0406 -84.8447 89° East 538 619 45,000  Level Chicago Center
Fri 07:12:46 PM 42.0508 -84.6425 86° East 543 625 45,000  Level Chicago Center
Fri 07:13:48 PM 42.0608 -84.4422 86° East 541 623 45,000  Level Chicago Center
Fri 07:14:50 PM 42.0700 -84.2403 86° East 542 624 45,000  Level Chicago Center
Fri 07:15:32 PM 42.0758 -84.0717 87° East 533 613 45,000  Level Cleveland Center
Fri 07:16:32 PM 42.0817 -83.8706 88° East 533 613 45,000  Level Cleveland Center
Fri 07:17:32 PM 42.0894 -83.6667 87° East 533 613 45,000  Level Cleveland Center
Fri 07:18:32 PM 42.0983 -83.4853 86° East 538 619 45,000  Level Cleveland Center
Fri 07:19:32 PM 42.1081 -83.2617 87° East 538 619 45,000  Level Cleveland Center
Fri 07:20:32 PM 42.1147 -83.0575 87° East 538 619 45,000  Level Cleveland Center
Fri 07:21:32 PM 42.1206 -82.8731 87° East 538 619 45,000  Level Cleveland Center
Fri 07:22:32 PM 42.1161 -82.6742 92° East 538 619 45,000  Level Cleveland Center
Fri 07:23:32 PM 42.1342 -82.4647 83° East 538 619 45,000  Level Cleveland Center
Fri 07:24:32 PM 42.1417 -82.2606 87° East 543 625 45,000  Level Cleveland Center
Fri 07:25:32 PM 42.1467 -82.0394 88° East 543 625 45,000  Level Cleveland Center
Fri 07:26:32 PM 42.1531 -81.8547 87° East 543 625 45,000  Level Cleveland Center
Fri 07:27:32 PM 42.1592 -81.6475 88° East 548 631 45,000  Level Cleveland Center
Fri 07:28:32 PM 42.1631 -81.4431 88° East 548 631 45,000  Level Cleveland Center
Fri 07:29:32 PM 42.1667 -81.2386 89° East 548 631 45,000  Level Cleveland Center
Fri 07:30:32 PM 42.1736 -81.0397 87° East 548 631 45,000  Level Cleveland Center
Fri 07:31:32 PM 42.1953 -80.8158 82° East 548 631 45,000  Level Cleveland Center
Fri 07:32:32 PM 42.2122 -80.6197 83° East 542 624 45,000  Level Cleveland Center
Fri 07:33:32 PM 42.2286 -80.4150 84° East 536 617 45,000  Level Cleveland Center
Fri 07:34:32 PM 42.2469 -80.2186 83° East 536 617 45,000  Level Cleveland Center
Fri 07:35:32 PM 42.2650 -80.0192 83° East 536 617 45,000  Level Cleveland Center
Fri 07:36:32 PM 42.2806 -79.8450 83° East 536 617 45,000  Level Cleveland Center
Fri 07:37:32 PM 42.2958 -79.6483 84° East 531 611 45,000  Level Cleveland Center
Fri 07:38:32 PM 42.3131 -79.4544 83° East 526 605 45,000  Level Cleveland Center
Fri 07:39:32 PM 42.3236 -79.2772 85° East 526 605 45,000  Level Cleveland Center
Fri 07:40:32 PM 42.3436 -79.0439 83° East 521 600 45,000  Level Cleveland Center
Fri 07:41:32 PM 42.3597 -78.8467 84° East 521 600 45,000  Level Cleveland Center
Fri 07:42:32 PM 42.3733 -78.6553 84° East 521 600 45,000  Level Cleveland Center
Fri 07:43:32 PM 42.3864 -78.4608 85° East 521 600 45,000  Level Cleveland Center
Fri 07:44:32 PM 42.3994 -78.2664 85° East 521 600 45,000  Level Cleveland Center
Fri 07:45:32 PM 42.4100 -78.0747 86° East 521 600 45,000  Level Cleveland Center
Fri 07:46:32 PM 42.4222 -77.8772 85° East 521 600 45,000  Level Cleveland Center
Fri 07:47:32 PM 42.4364 -77.6853 84° East 521 600 45,000  Level Cleveland Center
Fri 07:48:32 PM 42.4478 -77.4850 86° East 521 600 45,000  Level Cleveland Center
Fri 07:50:10 PM 42.4683 -77.1781 85° East 545 627 45,000  Level Boston Center
Fri 07:51:10 PM 42.4806 -76.9789 85° East 534 615 45,000  Level Boston Center
Fri 07:52:11 PM 42.4906 -76.7797 86° East 534 615 45,000  Level Boston Center
Fri 07:53:24 PM 42.5019 -76.5803 86° East 534 615 45,000  Level Boston Center
Fri 07:54:37 PM 42.5033 -76.3072 90° East 528 608 45,000  Level Boston Center
Fri 07:55:34 PM 42.4511 -76.1267 111° Southeast 504 580 45,000  Level Boston Center
Fri 07:56:36 PM 42.4364 -75.9317 96° East 511 588 45,000  Level Boston Center
Fri 07:57:36 PM 42.4256 -75.7311 94° East 516 594 45,000 -149 Level Boston Center
Fri 07:58:37 PM 42.4208 -75.5339 92° East 524 603 44,700 -864 Descending Boston Center
Fri 07:59:34 PM 42.4342 -75.3378 85° East 519 597 43,300 -1,436 Descending Boston Center
Fri 08:00:34 PM 42.4517 -75.1444 83° East 519 597 41,900 -1,934 Descending Boston Center
Fri 08:01:35 PM 42.4664 -74.9481 84° East 514 592 39,400 -2,852 Descending Boston Center
Fri 08:02:36 PM 42.4789 -74.7514 85° East 519 597 36,100 -3,378 Descending Boston Center
Fri 08:03:34 PM 42.4892 -74.5517 86° East 519 597 32,700 -3,203 Descending Boston Center
Fri 08:04:34 PM 42.4986 -74.3747 86° East 519 597 29,800 -2,678 Descending Boston Center
Fri 08:05:35 PM 42.4858 -74.1350 94° East 525 604 27,300 -2,231 Descending Boston Center
Fri 08:06:35 PM 42.4467 -73.9481 106° East 519 597 25,300 -1,983 Descending Boston Center
Fri 08:07:36 PM 42.4072 -73.7644 106° East 513 590 23,300 -1,983 Descending Boston Center
Fri 08:08:36 PM 42.3675 -73.5894 107° East 495 570 21,300 -1,425 Descending Boston Center
Fri 08:10:37 PM 42.2994 -73.2653 106° East 468 539 19,000 -775 Descending Boston Center
Fri 08:11:34 PM 42.2317 -73.1047 120° Southeast 452 520 19,000  Level Boston Center
Fri 08:12:35 PM 42.1511 -72.9917 134° Southeast 460 529 19,000 -347 Level Boston Center
Fri 08:13:35 PM 42.0494 -72.8483 134° Southeast 466 536 18,300 -793 Descending Boston Center
Fri 08:14:36 PM 41.9625 -72.7247 133° Southeast 466 536 17,400 -1,137 Descending Boston Center
Fri 08:15:10 PM 41.9189 -72.6467 127° Southeast 449 517 16,500 -2,053 Descending Boston Center
Fri 08:15:52 PM 41.8711 -72.5517 124° Southeast 450 518 14,800 -2,753 Descending Boston Center
Fri 08:16:35 PM 41.8253 -72.4511 121° Southeast 444 511 12,600 -2,745 Descending Boston Center
Fri 08:17:26 PM 41.7647 -72.3511 129° Southeast 382 440 10,500 -1,785 Descending Boston Center
Fri 08:18:36 PM 41.6792 -72.2844 150° Southeast 328 377 9,000 -1,686 Descending Boston Center
Fri 08:19:27 PM 41.6186 -72.2347 148° Southeast 290 334 7,100 -2,094 Descending Boston Center
Fri 08:20:22 PM 41.5686 -72.1653 134° Southeast 284 327 5,300 -1,096 Descending Boston Center
Fri 08:21:22 PM 41.5161 -72.0964 135° Southeast 253 291 5,000 -595 Descending Boston Center
Fri 08:22:23 PM 41.4703 -72.0300 133° Southeast 224 258 4,100 -1,328 Descending Boston Center
Fri 08:23:24 PM 41.4242 -71.9833 143° Southeast 210 242 2,300 -1,339 Descending Boston Center
Fri 08:24:24 PM 41.3844 -71.9947 192° South 112 129 1,400 -850 Descending Boston Center
Fri 08:25:24 PM 41.3597 -72.0197 217° Southwest 116 133 600 3,189 Descending Boston Center
Fri 08:26:47 PM 41.3075 -72.0256 185° South 129 148 9,000 3,524 Climbing Boston Center
Fri 08:27:47 PM 41.2700 -72.0397 196° South 129 148 9,000  Level Boston Center
Fri 08:28:48 PM 41.2347 -72.0536 196° South 129 148 9,000  Level Boston Center
Fri 08:29:46 PM 41.2264 -72.0564 194° South 129 148 9,000  Level Boston Center
Fri 08:31:00 PM 41.3167 -72.0333 North  Level FlightAware Approximate
Fri 08:38:00 PM 41.3301 -72.0451 North  Level Estimated
Fri 08:39:00 PM 41.3301 -72.0451 North  Level Estimated
Fri 08:40:00 PM 41.3301 -72.0451 North  Level Estimated
Fri 08:41:00 PM 41.3301 -72.0451 North  Level Estimated

Login

Don't have an account? Register now (free) for customized features, flight alerts, and more!